Terminal Aerodrome Forecast
Issued by NWS

Home | Current Version | Previous Version | Text Only | Print | Product List | Glossary On
Versions: 1 2 3 4 5 6 7 8 9 10 11 12 13 14 15 16 17 18
000
FTUS43 KSGF 231948 AAA
TAFJLN
TAF AMD
KJLN 231948Z 2320/2418 VRB04KT 6SM -SHRA VCTS BKN035CB
      TEMPO 2320/2322 2SM TSRA OVC025CB
     FM240100 15006KT P6SM SCT040 BKN250
     FM241500 16005KT P6SM SCT040=

USA.gov is the U.S. government's official web portal to all federal, state and local government web resources and services.